createdAt,value
2023-01-19T00:00:11.093Z,99180.82
2023-01-19T00:01:11.091Z,99182.10
2023-01-19T00:02:11.061Z,99176.95
2023-01-19T00:03:11.064Z,99178.73
2023-01-19T00:04:11.079Z,99177.59
2023-01-19T00:05:11.065Z,99177.66
2023-01-19T00:06:11.137Z,99176.10
2023-01-19T00:07:11.065Z,99179.34
2023-01-19T00:08:15.169Z,99176.36
2023-01-19T00:09:11.078Z,99179.32
2023-01-19T00:10:11.072Z,99177.02
2023-01-19T00:11:11.067Z,99179.38
2023-01-19T00:12:11.074Z,99176.45
2023-01-19T00:13:11.072Z,99180.08
2023-01-19T00:14:11.064Z,99177.62
2023-01-19T00:15:11.069Z,99179.05
2023-01-19T00:16:11.146Z,99179.05
2023-01-19T00:17:11.067Z,99181.63
2023-01-19T00:18:11.405Z,99179.07
2023-01-19T00:19:11.071Z,99177.61
2023-01-19T00:20:11.061Z,99177.87
2023-01-19T00:21:11.069Z,99180.09
2023-01-19T00:22:11.066Z,99183.15
2023-01-19T00:23:11.068Z,99179.25
2023-01-19T00:24:11.064Z,99183.49
2023-01-19T00:25:11.068Z,99182.62
2023-01-19T00:26:11.065Z,99185.91
2023-01-19T00:27:11.066Z,99184.35
2023-01-19T00:28:13.075Z,99184.16
2023-01-19T00:29:12.065Z,99182.95
2023-01-19T00:30:11.064Z,99180.57
2023-01-19T00:31:11.124Z,99180.34
2023-01-19T00:32:11.067Z,99182.87
2023-01-19T00:33:11.072Z,99180.47
2023-01-19T00:34:11.067Z,99180.05
2023-01-19T00:35:11.072Z,99184.21
2023-01-19T00:36:11.067Z,99183.14
2023-01-19T00:37:12.069Z,99184.62
2023-01-19T00:38:11.080Z,99188.51
2023-01-19T00:39:11.069Z,99187.65
2023-01-19T00:40:11.076Z,99185.51
2023-01-19T00:41:11.065Z,99185.25
2023-01-19T00:42:15.069Z,99186.43
2023-01-19T00:43:11.070Z,99184.84
2023-01-19T00:44:11.063Z,99185.28
2023-01-19T00:45:11.065Z,99184.98
2023-01-19T00:46:11.126Z,99182.25
2023-01-19T00:47:11.069Z,99185.56
2023-01-19T00:48:11.065Z,99180.65
2023-01-19T00:49:11.068Z,99184.64
2023-01-19T00:50:11.062Z,99183.97
2023-01-19T00:51:11.079Z,99186.37
2023-01-19T00:52:11.066Z,99183.95
2023-01-19T00:53:11.089Z,99187.34
2023-01-19T00:54:14.075Z,99187.15
2023-01-19T00:55:11.065Z,99185.25
2023-01-19T00:56:11.078Z,99189.93
2023-01-19T00:57:11.074Z,99188.43
2023-01-19T00:58:11.066Z,99196.80
2023-01-19T00:59:11.111Z,99196.03
2023-01-19T01:00:12.076Z,99196.90
2023-01-19T01:01:11.205Z,99197.66
2023-01-19T01:02:11.326Z,99200.62
2023-01-19T01:03:11.148Z,99203.93
2023-01-19T01:04:11.066Z,99199.70
2023-01-19T01:05:11.069Z,99200.64
2023-01-19T01:06:12.061Z,99198.50
2023-01-19T01:07:11.066Z,99199.61
2023-01-19T01:08:11.062Z,99198.80
2023-01-19T01:09:15.063Z,99200.74
2023-01-19T01:10:14.098Z,99194.23
2023-01-19T01:11:11.062Z,99194.78
2023-01-19T01:12:12.076Z,99195.92
2023-01-19T01:13:22.354Z,99193.14
2023-01-19T01:14:13.363Z,99192.88
2023-01-19T01:15:11.077Z,99196.27
2023-01-19T01:16:11.120Z,99196.66
2023-01-19T01:17:11.069Z,99195.07
2023-01-19T01:18:11.070Z,99197.04
2023-01-19T01:19:11.061Z,99200.46
2023-01-19T01:20:11.066Z,99201.68
2023-01-19T01:21:11.070Z,99204.84
2023-01-19T01:22:11.068Z,99206.80
2023-01-19T01:23:11.065Z,99208.28
2023-01-19T01:24:11.062Z,99212.69
2023-01-19T01:25:11.059Z,99212.70
2023-01-19T01:26:11.061Z,99211.91
2023-01-19T01:27:11.066Z,99210.36
2023-01-19T01:28:12.059Z,99213.93
2023-01-19T01:29:11.067Z,99213.75
2023-01-19T01:30:11.068Z,99211.61
2023-01-19T01:31:11.064Z,99212.21
2023-01-19T01:32:11.067Z,99210.62
2023-01-19T01:33:11.070Z,99207.42
2023-01-19T01:34:11.061Z,99205.32
2023-01-19T01:35:11.066Z,99205.18
2023-01-19T01:36:11.070Z,99203.43
2023-01-19T01:37:12.062Z,99203.79
2023-01-19T01:38:11.063Z,99201.37
2023-01-19T01:39:11.066Z,99200.97
2023-01-19T01:40:12.062Z,99199.36
2023-01-19T01:41:11.070Z,99200.98
2023-01-19T01:42:15.063Z,99197.69
2023-01-19T01:43:15.102Z,99200.21
2023-01-19T01:44:20.067Z,99196.32
2023-01-19T01:45:19.064Z,99193.76
2023-01-19T01:46:11.101Z,99193.73
2023-01-19T01:47:11.060Z,99191.37
2023-01-19T01:48:19.074Z,99192.55
2023-01-19T01:49:15.077Z,99189.64
2023-01-19T01:50:18.063Z,99190.30
2023-01-19T01:51:26.067Z,99189.11
2023-01-19T01:52:11.064Z,99190.19
2023-01-19T01:53:13.060Z,99192.18
2023-01-19T01:54:19.070Z,99191.46
2023-01-19T01:55:11.061Z,99196.11
2023-01-19T01:56:13.069Z,99193.47
2023-01-19T01:57:11.064Z,99194.98
2023-01-19T01:58:11.067Z,99195.12
2023-01-19T01:59:14.062Z,99196.23
2023-01-19T02:00:11.062Z,99196.02
2023-01-19T02:01:15.140Z,99199.27
2023-01-19T02:02:19.063Z,99197.24
2023-01-19T02:03:11.098Z,99195.96
2023-01-19T02:04:11.060Z,99194.23
2023-01-19T02:05:13.070Z,99197.50
2023-01-19T02:06:11.060Z,99196.16
2023-01-19T02:07:19.064Z,99197.13
2023-01-19T02:08:20.075Z,99196.59
2023-01-19T02:09:15.064Z,99197.64
2023-01-19T02:10:15.065Z,99198.80
2023-01-19T02:11:15.064Z,99199.04
2023-01-19T02:12:15.076Z,99202.89
2023-01-19T02:13:15.065Z,99200.19
2023-01-19T02:14:11.070Z,99203.81
2023-01-19T02:15:15.063Z,99204.15
2023-01-19T02:16:11.065Z,99203.57
2023-01-19T02:17:11.062Z,99203.79
2023-01-19T02:18:11.064Z,99206.85
2023-01-19T02:19:15.064Z,99203.53
2023-01-19T02:20:11.074Z,99207.36
2023-01-19T02:21:16.066Z,99206.53
2023-01-19T02:22:19.064Z,99202.42
2023-01-19T02:23:19.063Z,99207.06
2023-01-19T02:24:11.058Z,99203.95
2023-01-19T02:25:11.073Z,99204.07
2023-01-19T02:26:12.079Z,99202.48
2023-01-19T02:27:11.062Z,99203.57
2023-01-19T02:28:11.067Z,99208.44
2023-01-19T02:29:12.070Z,99209.31
2023-01-19T02:30:11.077Z,99201.92
2023-01-19T02:31:11.071Z,99208.61
2023-01-19T02:32:11.064Z,99205.89
2023-01-19T02:33:11.070Z,99208.39
2023-01-19T02:34:11.075Z,99203.71
2023-01-19T02:35:11.079Z,99206.57
2023-01-19T02:36:15.065Z,99202.44
2023-01-19T02:37:13.085Z,99203.88
2023-01-19T02:38:11.064Z,99204.77
2023-01-19T02:39:11.065Z,99203.69
2023-01-19T02:40:12.074Z,99204.10
2023-01-19T02:41:12.062Z,99207.54
2023-01-19T02:42:16.062Z,99208.05
2023-01-19T02:43:11.072Z,99208.99
2023-01-19T02:44:11.066Z,99211.43
2023-01-19T02:45:11.066Z,99210.92
2023-01-19T02:46:11.196Z,99210.39
2023-01-19T02:47:11.061Z,99210.20
2023-01-19T02:48:11.068Z,99208.98
2023-01-19T02:49:11.074Z,99207.88
2023-01-19T02:50:19.062Z,99207.28
2023-01-19T02:51:15.062Z,99205.05
2023-01-19T02:52:15.067Z,99206.66
2023-01-19T02:53:21.068Z,99201.43
2023-01-19T02:54:19.064Z,99202.20
2023-01-19T02:55:19.066Z,99200.37
2023-01-19T02:56:21.081Z,99202.19
2023-01-19T02:57:23.072Z,99204.93
2023-01-19T02:58:21.074Z,99205.09
2023-01-19T02:59:19.071Z,99204.01
2023-01-19T03:00:21.061Z,99207.02
2023-01-19T03:01:24.267Z,99209.80
2023-01-19T03:02:20.195Z,99210.52
2023-01-19T03:03:21.066Z,99211.42
2023-01-19T03:04:21.068Z,99210.55
2023-01-19T03:05:19.065Z,99211.88
2023-01-19T03:06:19.067Z,99217.87
2023-01-19T03:07:19.066Z,99227.55
2023-01-19T03:08:21.068Z,99223.94
2023-01-19T03:09:21.075Z,99226.21
2023-01-19T03:10:21.068Z,99226.07
2023-01-19T03:11:11.065Z,99223.61
2023-01-19T03:12:19.067Z,99218.36
2023-01-19T03:13:18.070Z,99218.19
2023-01-19T03:14:14.066Z,99219.91
2023-01-19T03:15:19.065Z,99217.91
2023-01-19T03:16:21.876Z,99209.18
2023-01-19T03:17:11.072Z,99216.37
2023-01-19T03:18:11.068Z,99214.38
2023-01-19T03:19:16.066Z,99210.12
2023-01-19T03:20:11.074Z,99208.42
2023-01-19T03:21:11.073Z,99207.03
2023-01-19T03:22:21.067Z,99206.98
2023-01-19T03:23:12.072Z,99202.08
2023-01-19T03:24:11.066Z,99200.16
2023-01-19T03:25:11.067Z,99198.79
2023-01-19T03:26:13.069Z,99200.84
2023-01-19T03:27:19.065Z,99202.47
2023-01-19T03:28:11.062Z,99201.26
2023-01-19T03:29:12.072Z,99198.57
2023-01-19T03:30:12.064Z,99201.05
2023-01-19T03:31:20.073Z,99201.59
2023-01-19T03:32:15.068Z,99203.81
2023-01-19T03:33:14.066Z,99202.94
2023-01-19T03:34:11.061Z,99203.72
2023-01-19T03:35:13.075Z,99200.30
2023-01-19T03:36:14.066Z,99199.27
2023-01-19T03:37:11.065Z,99198.59
2023-01-19T03:38:14.064Z,99197.91
2023-01-19T03:39:11.068Z,99198.13
2023-01-19T03:40:11.070Z,99190.15
2023-01-19T03:41:14.068Z,99187.02
2023-01-19T03:42:14.071Z,99194.75
2023-01-19T03:43:11.068Z,99194.20
2023-01-19T03:44:11.067Z,99194.34
2023-01-19T03:45:12.067Z,99193.61
2023-01-19T03:46:11.211Z,99195.64
2023-01-19T03:47:11.073Z,99193.70
2023-01-19T03:48:11.065Z,99197.05
2023-01-19T03:49:11.061Z,99196.57
2023-01-19T03:50:18.081Z,99191.11
2023-01-19T03:51:11.068Z,99193.81
2023-01-19T03:52:11.066Z,99194.23
2023-01-19T03:53:14.068Z,99190.68
2023-01-19T03:54:11.066Z,99187.61
2023-01-19T03:55:11.065Z,99191.06
2023-01-19T03:56:17.079Z,99192.12
2023-01-19T03:57:11.069Z,99194.43
2023-01-19T03:58:11.066Z,99192.40
2023-01-19T03:59:11.069Z,99191.62
2023-01-19T04:00:11.066Z,99192.41
2023-01-19T04:01:11.218Z,99188.58
2023-01-19T04:02:11.184Z,99186.21
2023-01-19T04:03:14.066Z,99184.14
2023-01-19T04:04:11.058Z,99182.28
2023-01-19T04:05:11.065Z,99180.10
2023-01-19T04:06:11.061Z,99181.99
2023-01-19T04:07:11.079Z,99184.19
2023-01-19T04:08:11.068Z,99182.57
2023-01-19T04:09:11.065Z,99182.25
2023-01-19T04:10:11.071Z,99182.12
2023-01-19T04:11:11.071Z,99185.03
2023-01-19T04:12:11.060Z,99181.22
2023-01-19T04:13:11.062Z,99181.82
2023-01-19T04:14:11.068Z,99181.75
2023-01-19T04:15:11.062Z,99180.86
2023-01-19T04:16:11.114Z,99178.14
2023-01-19T04:17:11.069Z,99175.29
2023-01-19T04:18:11.065Z,99176.58
2023-01-19T04:19:11.059Z,99173.45
2023-01-19T04:20:11.075Z,99173.54
2023-01-19T04:21:11.061Z,99172.00
2023-01-19T04:22:11.067Z,99169.70
2023-01-19T04:23:11.070Z,99168.43
2023-01-19T04:24:11.058Z,99170.13
2023-01-19T04:25:11.061Z,99168.12
2023-01-19T04:26:11.062Z,99169.62
2023-01-19T04:27:11.065Z,99169.16
2023-01-19T04:28:11.062Z,99171.61
2023-01-19T04:29:11.140Z,99168.68
2023-01-19T04:30:11.060Z,99166.10
2023-01-19T04:31:11.108Z,99167.51
2023-01-19T04:32:11.061Z,99164.25
2023-01-19T04:33:11.072Z,99163.06
2023-01-19T04:34:11.061Z,99160.87
2023-01-19T04:35:11.062Z,99162.07
2023-01-19T04:36:11.067Z,99161.83
2023-01-19T04:37:11.071Z,99157.91
2023-01-19T04:38:11.065Z,99159.76
2023-01-19T04:39:12.065Z,99157.52
2023-01-19T04:40:11.062Z,99156.30
2023-01-19T04:41:11.062Z,99155.66
2023-01-19T04:42:11.065Z,99149.54
2023-01-19T04:43:11.069Z,99153.28
2023-01-19T04:44:11.063Z,99154.73
2023-01-19T04:45:11.059Z,99156.50
2023-01-19T04:46:13.113Z,99161.87
2023-01-19T04:47:11.059Z,99160.80
2023-01-19T04:48:11.060Z,99163.22
2023-01-19T04:49:11.084Z,99163.23
2023-01-19T04:50:11.064Z,99163.92
2023-01-19T04:51:11.060Z,99169.76
2023-01-19T04:52:11.068Z,99168.93
2023-01-19T04:53:11.064Z,99170.64
2023-01-19T04:54:12.076Z,99169.44
2023-01-19T04:55:11.074Z,99166.89
2023-01-19T04:56:11.059Z,99171.86
2023-01-19T04:57:11.062Z,99168.55
2023-01-19T04:58:11.081Z,99167.39
2023-01-19T04:59:11.060Z,99167.26
2023-01-19T05:00:12.062Z,99167.35
2023-01-19T05:01:11.103Z,99167.12
2023-01-19T05:02:11.083Z,99168.98
2023-01-19T05:03:11.201Z,99168.48
2023-01-19T05:04:11.063Z,99167.06
2023-01-19T05:05:11.070Z,99166.04
2023-01-19T05:06:11.062Z,99166.55
2023-01-19T05:07:11.064Z,99168.39
2023-01-19T05:08:11.057Z,99163.32
2023-01-19T05:09:12.063Z,99168.62
2023-01-19T05:10:11.062Z,99166.30
2023-01-19T05:11:11.063Z,99166.73
2023-01-19T05:12:11.064Z,99167.17
2023-01-19T05:13:11.066Z,99166.82
2023-01-19T05:14:11.062Z,99166.80
2023-01-19T05:15:13.072Z,99168.46
2023-01-19T05:16:11.245Z,99168.60
2023-01-19T05:17:11.065Z,99168.72
2023-01-19T05:18:11.061Z,99166.37
2023-01-19T05:19:11.064Z,99165.22
2023-01-19T05:20:11.072Z,99163.80
2023-01-19T05:21:11.069Z,99164.26
2023-01-19T05:22:11.065Z,99162.08
2023-01-19T05:23:11.066Z,99163.66
2023-01-19T05:24:11.063Z,99164.98
2023-01-19T05:25:11.064Z,99166.29
2023-01-19T05:26:11.061Z,99168.39
2023-01-19T05:27:11.061Z,99169.67
2023-01-19T05:28:11.067Z,99169.50
2023-01-19T05:29:11.064Z,99169.98
2023-01-19T05:30:11.067Z,99175.39
2023-01-19T05:31:11.189Z,99175.88
2023-01-19T05:32:11.070Z,99178.17
2023-01-19T05:33:11.063Z,99179.19
2023-01-19T05:34:12.066Z,99178.54
2023-01-19T05:35:11.061Z,99182.20
2023-01-19T05:36:11.062Z,99180.43
2023-01-19T05:37:11.066Z,99183.29
2023-01-19T05:38:11.059Z,99179.81
2023-01-19T05:39:11.063Z,99179.77
2023-01-19T05:40:11.064Z,99180.20
2023-01-19T05:41:11.059Z,99178.66
2023-01-19T05:42:11.068Z,99177.75
2023-01-19T05:43:11.071Z,99181.88
2023-01-19T05:44:11.064Z,99179.52
2023-01-19T05:45:11.066Z,99177.67
2023-01-19T05:46:11.074Z,99184.64
2023-01-19T05:47:11.060Z,99182.06
2023-01-19T05:48:11.064Z,99180.56
2023-01-19T05:49:11.081Z,99182.82
2023-01-19T05:50:11.066Z,99182.59
2023-01-19T05:51:11.069Z,99181.80
2023-01-19T05:52:11.079Z,99181.99
2023-01-19T05:53:11.066Z,99175.48
2023-01-19T05:54:11.064Z,99177.01
2023-01-19T05:55:11.071Z,99180.13
2023-01-19T05:56:11.064Z,99175.49
2023-01-19T05:57:11.062Z,99173.77
2023-01-19T05:58:11.084Z,99170.11
2023-01-19T05:59:11.062Z,99172.04
2023-01-19T06:00:11.072Z,99175.50
2023-01-19T06:01:11.129Z,99175.20
2023-01-19T06:02:11.185Z,99171.17
2023-01-19T06:03:11.115Z,99172.02
2023-01-19T06:04:11.075Z,99173.09
2023-01-19T06:05:11.076Z,99176.34
2023-01-19T06:06:11.069Z,99177.12
2023-01-19T06:07:11.066Z,99172.39
2023-01-19T06:08:11.071Z,99174.07
2023-01-19T06:09:11.063Z,99175.20
2023-01-19T06:10:11.062Z,99173.82
2023-01-19T06:11:11.077Z,99175.08
2023-01-19T06:12:11.063Z,99180.73
2023-01-19T06:13:11.072Z,99180.42
2023-01-19T06:14:11.064Z,99176.24
2023-01-19T06:15:11.064Z,99177.62
2023-01-19T06:16:11.127Z,99179.46
2023-01-19T06:17:11.064Z,99179.65
2023-01-19T06:18:11.067Z,99178.61
2023-01-19T06:19:11.066Z,99178.56
2023-01-19T06:20:11.068Z,99178.43
2023-01-19T06:21:11.070Z,99178.34
2023-01-19T06:22:11.061Z,99180.28
2023-01-19T06:23:11.064Z,99177.47
2023-01-19T06:24:12.643Z,99172.75
2023-01-19T06:25:11.068Z,99176.14
2023-01-19T06:26:11.064Z,99172.02
2023-01-19T06:27:11.072Z,99168.86
2023-01-19T06:28:11.061Z,99169.15
2023-01-19T06:29:11.088Z,99169.61
2023-01-19T06:30:11.071Z,99170.70
2023-01-19T06:31:11.136Z,99168.53
2023-01-19T06:32:11.065Z,99169.41
2023-01-19T06:33:11.078Z,99167.43
2023-01-19T06:34:11.060Z,99166.21
2023-01-19T06:35:11.083Z,99174.57
2023-01-19T06:36:11.078Z,99170.91
2023-01-19T06:37:11.062Z,99172.57
2023-01-19T06:38:11.064Z,99171.49
2023-01-19T06:39:11.073Z,99175.45
2023-01-19T06:40:12.924Z,99172.43
2023-01-19T06:41:11.075Z,99178.38
2023-01-19T06:42:11.070Z,99176.00
2023-01-19T06:43:11.065Z,99177.57
2023-01-19T06:44:11.061Z,99180.82
2023-01-19T06:45:11.071Z,99175.29
2023-01-19T06:46:11.063Z,99176.44
2023-01-19T06:47:15.019Z,99173.77
2023-01-19T06:48:13.979Z,99175.59
2023-01-19T06:49:11.065Z,99173.57
2023-01-19T06:50:11.060Z,99170.66
2023-01-19T06:51:11.070Z,99170.87
2023-01-19T06:52:13.063Z,99174.55
2023-01-19T06:53:11.064Z,99172.92
2023-01-19T06:54:11.073Z,99179.23
2023-01-19T06:55:11.063Z,99179.30
2023-01-19T06:56:11.061Z,99179.37
2023-01-19T06:57:11.075Z,99182.47
2023-01-19T06:58:11.067Z,99180.35
2023-01-19T06:59:11.067Z,99180.15
2023-01-19T07:00:11.067Z,99180.75
2023-01-19T07:01:11.188Z,99179.46
2023-01-19T07:02:27.465Z,99176.65
2023-01-19T07:03:17.866Z,99179.77
2023-01-19T07:04:11.063Z,99181.89
2023-01-19T07:05:11.059Z,99181.98
2023-01-19T07:06:12.064Z,99180.59
2023-01-19T07:07:11.063Z,99181.91
2023-01-19T07:08:11.059Z,99183.87
2023-01-19T07:09:16.726Z,99188.93
2023-01-19T07:10:11.065Z,99187.13
2023-01-19T07:11:27.146Z,99187.60
2023-01-19T07:12:13.292Z,99187.48
2023-01-19T07:13:11.072Z,99192.06
2023-01-19T07:14:11.064Z,99195.91
2023-01-19T07:15:11.066Z,99193.11
2023-01-19T07:16:13.094Z,99193.81
2023-01-19T07:17:11.066Z,99189.19
2023-01-19T07:18:11.057Z,99190.84
2023-01-19T07:19:11.073Z,99194.48
2023-01-19T07:20:11.065Z,99195.70
2023-01-19T07:21:11.067Z,99199.38
2023-01-19T07:22:11.080Z,99195.82
2023-01-19T07:23:11.066Z,99200.83
2023-01-19T07:24:11.057Z,99197.75
2023-01-19T07:25:11.075Z,99202.18
2023-01-19T07:26:11.063Z,99202.31
2023-01-19T07:27:11.060Z,99195.44
2023-01-19T07:28:11.066Z,99201.99
2023-01-19T07:29:11.064Z,99200.31
2023-01-19T07:30:11.056Z,99198.68
2023-01-19T07:31:11.202Z,99195.14
2023-01-19T07:32:11.060Z,99197.90
2023-01-19T07:33:11.060Z,99196.89
2023-01-19T07:34:12.533Z,99200.71
2023-01-19T07:35:11.077Z,99197.20
2023-01-19T07:36:11.062Z,99192.02
2023-01-19T07:37:11.070Z,99194.00
2023-01-19T07:38:11.064Z,99192.10
2023-01-19T07:39:11.058Z,99190.44
2023-01-19T07:40:11.069Z,99191.86
2023-01-19T07:41:11.062Z,99192.35
2023-01-19T07:42:11.063Z,99195.27
2023-01-19T07:43:11.069Z,99191.28
2023-01-19T07:44:11.065Z,99194.83
2023-01-19T07:45:11.064Z,99193.20
2023-01-19T07:46:11.138Z,99192.13
2023-01-19T07:47:11.065Z,99194.16
2023-01-19T07:48:11.065Z,99194.70
2023-01-19T07:49:11.064Z,99193.94
2023-01-19T07:50:11.070Z,99190.48
2023-01-19T07:51:12.965Z,99191.70
2023-01-19T07:52:11.063Z,99194.82
2023-01-19T07:53:11.057Z,99192.84
2023-01-19T07:54:12.068Z,99199.20
2023-01-19T07:55:11.071Z,99199.00
2023-01-19T07:56:11.058Z,99199.59
2023-01-19T07:57:11.066Z,99200.19
2023-01-19T07:58:11.063Z,99200.88
2023-01-19T07:59:13.058Z,99198.85
2023-01-19T08:00:11.062Z,99202.93
2023-01-19T08:01:13.193Z,99203.07
2023-01-19T08:02:11.104Z,99206.12
2023-01-19T08:03:11.067Z,99204.23
2023-01-19T08:04:11.071Z,99201.79
2023-01-19T08:05:11.062Z,99206.54
2023-01-19T08:06:17.078Z,99206.58
2023-01-19T08:07:11.064Z,99207.17
2023-01-19T08:08:11.062Z,99207.63
2023-01-19T08:09:11.062Z,99208.24
2023-01-19T08:10:11.071Z,99207.23
2023-01-19T08:11:11.063Z,99207.53
2023-01-19T08:12:11.066Z,99205.21
2023-01-19T08:13:11.069Z,99207.52
2023-01-19T08:14:11.064Z,99206.02
2023-01-19T08:15:11.059Z,99204.63
2023-01-19T08:16:11.178Z,99212.20
2023-01-19T08:17:13.065Z,99211.76
2023-01-19T08:18:11.076Z,99210.19
2023-01-19T08:19:11.063Z,99212.64
2023-01-19T08:20:11.066Z,99214.88
2023-01-19T08:21:11.062Z,99213.12
2023-01-19T08:22:11.065Z,99214.84
2023-01-19T08:23:11.070Z,99220.50
2023-01-19T08:24:17.086Z,99220.59
2023-01-19T08:25:11.068Z,99220.78
2023-01-19T08:26:19.063Z,99220.52
2023-01-19T08:27:12.209Z,99221.48
2023-01-19T08:28:11.106Z,99224.79
2023-01-19T08:29:11.070Z,99222.23
2023-01-19T08:30:11.068Z,99223.43
2023-01-19T08:31:19.166Z,99224.59
2023-01-19T08:32:13.405Z,99223.80
2023-01-19T08:33:12.069Z,99223.84
2023-01-19T08:34:11.070Z,99224.53
2023-01-19T08:35:11.061Z,99224.38
2023-01-19T08:36:11.071Z,99227.16
2023-01-19T08:37:11.061Z,99227.78
2023-01-19T08:38:11.084Z,99226.14
2023-01-19T08:39:11.069Z,99225.60
2023-01-19T08:40:11.061Z,99224.27
2023-01-19T08:41:11.063Z,99226.43
2023-01-19T08:42:11.065Z,99228.99
2023-01-19T08:43:13.063Z,99230.02
2023-01-19T08:44:11.076Z,99233.47
2023-01-19T08:45:11.082Z,99232.86
2023-01-19T08:46:11.138Z,99235.39
2023-01-19T08:47:11.122Z,99237.95
2023-01-19T08:48:11.073Z,99240.97
2023-01-19T08:49:11.064Z,99239.06
2023-01-19T08:50:11.069Z,99238.70
2023-01-19T08:51:11.071Z,99243.38
2023-01-19T08:52:11.065Z,99245.58
2023-01-19T08:53:12.065Z,99248.97
2023-01-19T08:54:11.066Z,99249.11
2023-01-19T08:55:11.067Z,99244.85
2023-01-19T08:56:15.059Z,99246.39
2023-01-19T08:57:11.067Z,99246.84
2023-01-19T08:58:11.082Z,99248.43
2023-01-19T08:59:13.005Z,99251.05
2023-01-19T09:00:11.082Z,99250.88
2023-01-19T09:01:11.134Z,99248.62
2023-01-19T09:02:11.113Z,99253.68
2023-01-19T09:03:11.106Z,99251.50
2023-01-19T09:04:11.073Z,99252.10
2023-01-19T09:05:11.070Z,99253.14
2023-01-19T09:06:11.065Z,99253.38
2023-01-19T09:07:11.094Z,99254.59
2023-01-19T09:08:11.083Z,99257.90
2023-01-19T09:09:11.066Z,99258.30
2023-01-19T09:10:11.085Z,99255.37
2023-01-19T09:11:13.080Z,99255.61
2023-01-19T09:12:11.061Z,99256.24
2023-01-19T09:13:11.117Z,99259.98
2023-01-19T09:14:11.069Z,99263.16
2023-01-19T09:15:11.081Z,99264.46
2023-01-19T09:16:11.119Z,99264.32
2023-01-19T09:17:11.077Z,99268.13
2023-01-19T09:18:12.067Z,99264.81
2023-01-19T09:19:12.065Z,99265.61
2023-01-19T09:20:11.067Z,99263.53
2023-01-19T09:21:11.065Z,99269.90
2023-01-19T09:22:11.067Z,99267.88
2023-01-19T09:23:14.066Z,99271.89
2023-01-19T09:24:11.081Z,99268.83
2023-01-19T09:25:11.063Z,99271.23
2023-01-19T09:26:11.065Z,99273.45
2023-01-19T09:27:11.063Z,99276.89
2023-01-19T09:28:11.090Z,99274.23
2023-01-19T09:29:11.065Z,99277.43
2023-01-19T09:30:11.080Z,99275.57
2023-01-19T09:31:11.198Z,99276.79
2023-01-19T09:32:11.072Z,99278.67
2023-01-19T09:33:13.060Z,99278.12
2023-01-19T09:34:11.067Z,99278.19
2023-01-19T09:35:11.063Z,99276.95
2023-01-19T09:36:11.097Z,99276.46
2023-01-19T09:37:11.072Z,99275.85
2023-01-19T09:38:11.069Z,99276.54
2023-01-19T09:39:11.084Z,99275.53
2023-01-19T09:40:11.072Z,99277.82
2023-01-19T09:41:19.076Z,99274.62
2023-01-19T09:42:19.059Z,99270.59
2023-01-19T09:43:19.073Z,99269.34
2023-01-19T09:44:19.072Z,99269.96
2023-01-19T09:45:18.136Z,99266.81
2023-01-19T09:46:19.098Z,99267.81
2023-01-19T09:47:15.068Z,99266.96
2023-01-19T09:48:23.071Z,99270.19
2023-01-19T09:49:18.071Z,99270.07
2023-01-19T09:50:20.125Z,99272.42
2023-01-19T09:51:15.065Z,99271.28
2023-01-19T09:52:14.072Z,99272.09
2023-01-19T09:53:21.066Z,99275.89
2023-01-19T09:54:21.064Z,99273.36
2023-01-19T09:55:19.066Z,99277.66
2023-01-19T09:56:13.075Z,99276.39
2023-01-19T09:57:13.077Z,99282.21
2023-01-19T09:58:15.066Z,99283.96
2023-01-19T09:59:23.080Z,99280.84
2023-01-19T10:00:17.070Z,99283.77
2023-01-19T10:01:19.185Z,99284.10
2023-01-19T10:02:19.075Z,99283.49
2023-01-19T10:03:16.127Z,99287.03
2023-01-19T10:04:19.060Z,99286.27
2023-01-19T10:05:21.069Z,99286.22
2023-01-19T10:06:13.070Z,99285.46
2023-01-19T10:07:21.071Z,99287.27
2023-01-19T10:08:20.073Z,99292.75
2023-01-19T10:09:19.063Z,99288.47
2023-01-19T10:10:19.075Z,99292.36
2023-01-19T10:11:23.063Z,99293.71
2023-01-19T10:12:20.082Z,99291.40
2023-01-19T10:13:21.062Z,99296.30
2023-01-19T10:14:19.063Z,99294.94
2023-01-19T10:15:21.064Z,99296.10
2023-01-19T10:16:19.116Z,99298.94
2023-01-19T10:17:19.063Z,99301.04
2023-01-19T10:18:19.061Z,99304.23
2023-01-19T10:19:19.065Z,99303.54
2023-01-19T10:20:19.255Z,99305.84
2023-01-19T10:21:19.066Z,99306.37
2023-01-19T10:22:21.106Z,99306.41
2023-01-19T10:23:21.071Z,99307.91
2023-01-19T10:24:21.094Z,99311.15
2023-01-19T10:25:15.061Z,99307.66
2023-01-19T10:26:17.095Z,99313.87
2023-01-19T10:27:17.118Z,99316.62
2023-01-19T10:28:12.065Z,99312.40
2023-01-19T10:29:19.105Z,99314.18
2023-01-19T10:30:15.092Z,99320.30
2023-01-19T10:31:11.167Z,99317.66
2023-01-19T10:32:19.070Z,99318.89
2023-01-19T10:33:13.091Z,99321.55
2023-01-19T10:34:12.063Z,99320.73
2023-01-19T10:35:17.083Z,99319.41
2023-01-19T10:36:18.067Z,99321.66
2023-01-19T10:37:19.084Z,99318.72
2023-01-19T10:38:14.067Z,99320.83
2023-01-19T10:39:14.074Z,99317.94
2023-01-19T10:40:21.089Z,99316.05
2023-01-19T10:41:17.060Z,99316.07
2023-01-19T10:42:14.059Z,99313.50
2023-01-19T10:43:19.084Z,99317.43
2023-01-19T10:44:11.061Z,99316.53
2023-01-19T10:45:19.089Z,99322.52
2023-01-19T10:46:17.158Z,99322.97
2023-01-19T10:47:18.092Z,99324.42
2023-01-19T10:48:12.063Z,99325.25
2023-01-19T10:49:19.093Z,99329.11
2023-01-19T10:50:19.138Z,99328.00
2023-01-19T10:51:11.094Z,99323.97
2023-01-19T10:52:21.061Z,99329.09
2023-01-19T10:53:19.063Z,99325.40
2023-01-19T10:54:13.101Z,99325.91
2023-01-19T10:55:19.071Z,99329.71
2023-01-19T10:56:21.074Z,99329.26
2023-01-19T10:57:12.072Z,99331.47
2023-01-19T10:58:19.061Z,99330.30
2023-01-19T10:59:19.076Z,99329.48
2023-01-19T11:00:19.062Z,99329.32
2023-01-19T11:01:15.251Z,99328.48
2023-01-19T11:02:20.281Z,99326.46
2023-01-19T11:03:19.135Z,99327.11
2023-01-19T11:04:19.104Z,99325.92
2023-01-19T11:05:19.069Z,99325.64
2023-01-19T11:06:19.067Z,99329.20
2023-01-19T11:07:19.063Z,99329.32
2023-01-19T11:08:19.083Z,99326.98
2023-01-19T11:09:18.070Z,99328.82
2023-01-19T11:10:18.182Z,99331.86
2023-01-19T11:11:12.074Z,99329.75
2023-01-19T11:12:21.071Z,99333.84
2023-01-19T11:13:16.075Z,99330.17
2023-01-19T11:14:12.066Z,99331.52
2023-01-19T11:15:19.069Z,99331.27
2023-01-19T11:16:19.105Z,99332.52
2023-01-19T11:17:21.062Z,99331.09
2023-01-19T11:18:15.065Z,99335.77
2023-01-19T11:19:19.070Z,99339.18
2023-01-19T11:20:19.087Z,99339.14
2023-01-19T11:21:15.067Z,99337.93
2023-01-19T11:22:19.061Z,99333.62
2023-01-19T11:23:19.062Z,99334.39
2023-01-19T11:24:12.075Z,99331.65
2023-01-19T11:25:19.065Z,99332.06
2023-01-19T11:26:15.063Z,99329.14
2023-01-19T11:27:11.065Z,99333.31
2023-01-19T11:28:21.066Z,99337.84
2023-01-19T11:29:16.066Z,99331.84
2023-01-19T11:30:19.064Z,99337.53
2023-01-19T11:31:17.220Z,99343.66
2023-01-19T11:32:18.082Z,99344.13
2023-01-19T11:33:19.065Z,99347.14
2023-01-19T11:34:19.063Z,99342.06
2023-01-19T11:35:19.067Z,99346.32
2023-01-19T11:36:18.066Z,99347.30
2023-01-19T11:37:19.069Z,99341.37
2023-01-19T11:38:19.094Z,99337.34
2023-01-19T11:39:19.064Z,99339.80
2023-01-19T11:40:14.225Z,99338.75
2023-01-19T11:41:16.071Z,99332.84
2023-01-19T11:42:11.068Z,99335.64
2023-01-19T11:43:14.077Z,99332.36
2023-01-19T11:44:19.074Z,99337.66